createdAt,value
2018-04-19T00:01:14.149Z,22.43
2018-04-19T00:03:43.295Z,23.70
2018-04-19T00:06:12.426Z,22.73
2018-04-19T00:08:41.592Z,23.97
2018-04-19T00:11:10.700Z,23.10
2018-04-19T00:13:39.881Z,23.00
2018-04-19T00:16:09.093Z,21.97
2018-04-19T00:18:38.243Z,23.73
2018-04-19T00:21:07.386Z,23.27
2018-04-19T00:23:36.589Z,24.20
2018-04-19T00:26:05.705Z,23.53
2018-04-19T00:28:34.833Z,22.90
2018-04-19T00:31:04.020Z,24.37
2018-04-19T00:33:33.144Z,22.70
2018-04-19T00:36:02.307Z,23.50
2018-04-19T00:38:31.459Z,23.13
2018-04-19T00:41:00.597Z,23.13
2018-04-19T00:43:29.784Z,23.00
2018-04-19T00:45:59.851Z,24.00
2018-04-19T00:48:28.975Z,24.00
2018-04-19T00:50:58.092Z,24.00
2018-04-19T00:53:27.318Z,24.13
2018-04-19T00:55:56.601Z,23.10
2018-04-19T00:58:25.724Z,22.60
2018-04-19T01:00:54.944Z,24.03
2018-04-19T01:03:24.065Z,24.30
2018-04-19T01:05:53.183Z,23.87
2018-04-19T01:08:22.344Z,24.27
2018-04-19T01:10:51.536Z,26.07
2018-04-19T01:13:20.653Z,24.40
2018-04-19T01:15:49.964Z,25.07
2018-04-19T01:18:19.080Z,25.20
2018-04-19T01:20:48.203Z,25.90
2018-04-19T01:23:17.379Z,25.57
2018-04-19T01:25:46.531Z,24.77
2018-04-19T01:28:15.727Z,24.00
2018-04-19T01:30:44.919Z,23.43
2018-04-19T01:33:14.107Z,23.23
2018-04-19T01:35:49.288Z,22.40
2018-04-19T01:38:18.404Z,23.13
2018-04-19T01:40:47.540Z,24.00
2018-04-19T01:43:16.684Z,23.97
2018-04-19T01:45:45.802Z,23.30
2018-04-19T01:48:14.972Z,23.27
2018-04-19T01:50:44.092Z,24.10
2018-04-19T01:53:13.201Z,24.30
2018-04-19T01:55:42.354Z,21.40
2018-04-19T01:58:11.513Z,24.10
2018-04-19T02:00:40.660Z,23.80
2018-04-19T02:03:09.812Z,21.70
2018-04-19T02:05:38.933Z,23.73
2018-04-19T02:08:08.069Z,23.03
2018-04-19T02:10:37.250Z,24.17
2018-04-19T02:13:06.391Z,22.90
2018-04-19T02:15:35.564Z,23.13
2018-04-19T02:18:05.144Z,23.30
2018-04-19T02:20:34.280Z,24.30
2018-04-19T02:23:03.429Z,23.17
2018-04-19T02:25:32.614Z,22.87
2018-04-19T02:28:01.722Z,23.90
2018-04-19T02:30:30.842Z,23.63
2018-04-19T02:33:00.022Z,24.70
2018-04-19T02:35:29.168Z,24.90
2018-04-19T02:37:58.366Z,25.37
2018-04-19T02:40:27.504Z,25.47
2018-04-19T02:42:56.653Z,25.07
2018-04-19T02:45:25.818Z,23.70
2018-04-19T02:47:54.955Z,25.37
2018-04-19T02:50:24.081Z,24.27
2018-04-19T02:52:53.216Z,25.47
2018-04-19T02:55:22.389Z,26.20
2018-04-19T02:57:51.612Z,26.90
2018-04-19T03:00:20.734Z,26.37
2018-04-19T03:02:49.878Z,26.60
2018-04-19T03:05:18.988Z,24.57
2018-04-19T03:07:48.142Z,26.17
2018-04-19T03:10:17.268Z,24.63
2018-04-19T03:12:46.389Z,25.53
2018-04-19T03:15:15.504Z,25.67
2018-04-19T03:17:44.682Z,28.03
2018-04-19T03:20:13.824Z,27.60
2018-04-19T03:22:42.977Z,26.40
2018-04-19T03:25:12.116Z,26.20
2018-04-19T03:27:41.299Z,27.87
2018-04-19T03:30:10.438Z,27.53
2018-04-19T03:32:39.624Z,25.80
2018-04-19T03:35:08.767Z,27.60
2018-04-19T03:37:37.921Z,27.90
2018-04-19T03:40:07.140Z,27.97
2018-04-19T03:42:36.296Z,26.97
2018-04-19T03:45:05.414Z,27.67
2018-04-19T03:47:34.552Z,27.57
2018-04-19T03:50:03.826Z,27.53
2018-04-19T03:52:33.021Z,27.30
2018-04-19T03:55:02.144Z,26.10
2018-04-19T03:57:31.411Z,27.67
2018-04-19T04:00:00.529Z,28.10
2018-04-19T04:02:29.650Z,28.60
2018-04-19T04:04:58.796Z,26.30
2018-04-19T04:07:27.956Z,26.20
2018-04-19T04:09:57.073Z,27.40
2018-04-19T04:12:26.303Z,27.07
2018-04-19T04:14:55.461Z,26.20
2018-04-19T04:17:30.504Z,25.33
2018-04-19T04:20:15.285Z,26.47
2018-04-19T04:22:50.421Z,27.83
2018-04-19T04:25:19.589Z,26.43
2018-04-19T04:27:48.701Z,25.57
2018-04-19T04:30:17.817Z,27.57
2018-04-19T04:32:46.961Z,25.80
2018-04-19T04:35:16.125Z,24.47
2018-04-19T04:37:45.215Z,25.27
2018-04-19T04:40:14.385Z,25.60
2018-04-19T04:42:43.509Z,24.60
2018-04-19T04:45:12.672Z,24.80
2018-04-19T04:47:41.806Z,23.57
2018-04-19T04:50:10.949Z,25.23
2018-04-19T04:52:40.594Z,24.63
2018-04-19T04:55:09.732Z,23.63
2018-04-19T04:57:38.891Z,24.17
2018-04-19T05:00:08.101Z,24.67
2018-04-19T05:02:37.166Z,22.80
2018-04-19T05:05:06.301Z,23.47
2018-04-19T05:07:35.453Z,22.60
2018-04-19T05:10:04.581Z,22.77
2018-04-19T05:12:33.697Z,25.07
2018-04-19T05:15:02.871Z,23.57
2018-04-19T05:17:31.996Z,23.60
2018-04-19T05:20:01.148Z,22.83
2018-04-19T05:22:30.335Z,20.77
2018-04-19T05:24:59.509Z,21.70
2018-04-19T05:27:28.637Z,23.10
2018-04-19T05:29:57.840Z,21.20
2018-04-19T05:32:26.999Z,23.37
2018-04-19T05:34:56.122Z,22.13
2018-04-19T05:37:25.269Z,24.07
2018-04-19T05:39:54.408Z,22.50
2018-04-19T05:42:23.560Z,22.40
2018-04-19T05:44:52.681Z,22.17
2018-04-19T05:47:21.824Z,21.10
2018-04-19T05:49:50.965Z,20.63
2018-04-19T05:52:20.127Z,20.70
2018-04-19T05:54:49.304Z,19.77
2018-04-19T05:57:18.472Z,20.27
2018-04-19T05:59:47.797Z,20.73
2018-04-19T06:02:16.988Z,19.43
2018-04-19T06:04:46.144Z,19.53
2018-04-19T06:07:15.264Z,18.90
2018-04-19T06:09:44.519Z,18.87
2018-04-19T06:12:13.661Z,19.47
2018-04-19T06:14:42.811Z,20.03
2018-04-19T06:17:12.013Z,22.60
2018-04-19T06:19:41.188Z,20.47
2018-04-19T06:22:10.348Z,20.50
2018-04-19T06:24:39.528Z,19.37
2018-04-19T06:27:08.655Z,18.87
2018-04-19T06:29:37.784Z,20.20
2018-04-19T06:32:06.913Z,19.60
2018-04-19T06:34:36.121Z,19.47
2018-04-19T06:37:05.273Z,19.60
2018-04-19T06:39:34.393Z,20.00
2018-04-19T06:42:03.601Z,19.60
2018-04-19T06:44:32.741Z,17.97
2018-04-19T06:47:01.893Z,18.60
2018-04-19T06:49:31.020Z,18.87
2018-04-19T06:52:00.219Z,19.03
2018-04-19T06:54:29.367Z,19.50
2018-04-19T06:56:58.551Z,18.63
2018-04-19T06:59:27.689Z,17.80
2018-04-19T07:01:56.848Z,17.70
2018-04-19T07:04:25.996Z,18.50
2018-04-19T07:06:55.147Z,17.77
2018-04-19T07:09:24.274Z,20.70
2018-04-19T07:11:53.426Z,17.50
2018-04-19T07:14:22.565Z,17.90
2018-04-19T07:16:51.716Z,16.27
2018-04-19T07:19:20.913Z,15.90
2018-04-19T07:21:50.035Z,16.93
2018-04-19T07:24:19.150Z,16.97
2018-04-19T07:26:48.339Z,17.77
2018-04-19T07:29:17.469Z,16.77
2018-04-19T07:31:46.681Z,16.83
2018-04-19T07:34:15.849Z,16.43
2018-04-19T07:36:44.968Z,17.13
2018-04-19T07:39:14.113Z,15.10
2018-04-19T07:41:43.279Z,15.43
2018-04-19T07:44:12.440Z,16.40
2018-04-19T07:46:41.608Z,15.40
2018-04-19T07:49:10.767Z,16.37
2018-04-19T07:51:39.937Z,16.00
2018-04-19T07:54:09.074Z,16.10
2018-04-19T07:56:38.194Z,16.33
2018-04-19T07:59:07.825Z,15.00
2018-04-19T08:01:36.968Z,14.70
2018-04-19T08:04:06.106Z,14.20
2018-04-19T08:06:35.284Z,13.97
2018-04-19T08:09:05.298Z,14.33
2018-04-19T08:11:34.410Z,15.17
2018-04-19T08:14:03.596Z,14.60
2018-04-19T08:16:32.745Z,14.90
2018-04-19T08:19:01.879Z,14.87
2018-04-19T08:21:31.058Z,14.50
2018-04-19T08:24:00.197Z,16.03
2018-04-19T08:26:29.867Z,15.70
2018-04-19T08:28:59.056Z,14.70
2018-04-19T08:31:28.196Z,14.03
2018-04-19T08:33:57.313Z,15.00
2018-04-19T08:36:26.465Z,14.20
2018-04-19T08:38:55.634Z,14.50
2018-04-19T08:41:24.775Z,15.30
2018-04-19T08:43:53.933Z,14.00
2018-04-19T08:46:23.058Z,13.80
2018-04-19T08:48:52.206Z,13.30
2018-04-19T08:51:21.401Z,13.80
2018-04-19T08:53:50.574Z,13.93
2018-04-19T08:56:19.758Z,13.90
2018-04-19T08:58:48.935Z,14.30
2018-04-19T09:01:18.065Z,14.40
2018-04-19T09:03:47.184Z,14.83
2018-04-19T09:06:16.369Z,14.10
2018-04-19T09:08:45.568Z,14.00
2018-04-19T09:11:14.712Z,14.90
2018-04-19T09:13:43.870Z,14.10
2018-04-19T09:16:13.069Z,14.10
2018-04-19T09:18:42.323Z,14.30
2018-04-19T09:21:11.469Z,13.30
2018-04-19T09:23:40.643Z,14.10
2018-04-19T09:26:09.753Z,14.40
2018-04-19T09:28:38.879Z,15.43
2018-04-19T09:31:08.146Z,16.17
2018-04-19T09:33:37.274Z,14.73
2018-04-19T09:36:06.393Z,14.37
2018-04-19T09:38:35.577Z,15.47
2018-04-19T09:41:04.713Z,15.27
2018-04-19T09:43:33.844Z,13.80
2018-04-19T09:46:03.000Z,14.30
2018-04-19T09:48:32.120Z,14.30
2018-04-19T09:51:01.262Z,13.63
2018-04-19T09:53:30.423Z,14.40
2018-04-19T09:55:59.572Z,15.00
2018-04-19T09:58:28.698Z,15.70
2018-04-19T10:01:03.626Z,15.50
2018-04-19T10:03:38.561Z,14.37
2018-04-19T10:06:07.679Z,15.20
2018-04-19T10:08:36.860Z,16.30
2018-04-19T10:11:06.009Z,15.33
2018-04-19T10:13:35.217Z,15.60
2018-04-19T10:16:04.482Z,15.90
2018-04-19T10:21:14.583Z,14.30
2018-04-19T10:23:43.707Z,15.20
2018-04-19T10:26:12.825Z,13.97
2018-04-19T10:28:42.021Z,14.30
2018-04-19T10:31:11.168Z,14.23
2018-04-19T10:33:40.324Z,14.30
2018-04-19T10:36:09.440Z,15.43
2018-04-19T10:38:38.682Z,14.20
2018-04-19T10:41:07.810Z,15.57
2018-04-19T10:43:36.936Z,13.80
2018-04-19T10:46:06.124Z,15.00
2018-04-19T10:48:35.235Z,16.07
2018-04-19T10:51:04.392Z,16.87
2018-04-19T10:53:33.648Z,19.63
2018-04-19T10:56:02.777Z,16.10
2018-04-19T10:58:31.899Z,18.90
2018-04-19T11:01:01.087Z,20.40
2018-04-19T11:03:30.197Z,14.43
2018-04-19T11:05:59.313Z,14.30
2018-04-19T11:08:28.496Z,17.80
2018-04-19T11:10:57.635Z,14.93
2018-04-19T11:13:26.763Z,14.57
2018-04-19T11:15:55.960Z,17.90
2018-04-19T11:18:25.069Z,19.63
2018-04-19T11:20:54.216Z,16.80
2018-04-19T11:23:23.467Z,15.93
2018-04-19T11:25:52.593Z,15.70
2018-04-19T11:28:21.748Z,17.10
2018-04-19T11:30:50.951Z,17.53
2018-04-19T11:33:20.089Z,15.80
2018-04-19T11:35:49.249Z,17.40
2018-04-19T11:38:18.376Z,18.60
2018-04-19T11:40:47.548Z,16.63
2018-04-19T11:43:16.691Z,16.97
2018-04-19T11:45:45.811Z,14.90
2018-04-19T11:48:14.965Z,16.80
2018-04-19T11:50:44.113Z,14.50
2018-04-19T11:53:13.256Z,17.20
2018-04-19T11:55:42.453Z,15.23
2018-04-19T11:58:11.584Z,15.50
2018-04-19T12:00:40.746Z,14.97
2018-04-19T12:03:09.890Z,14.20
2018-04-19T12:05:39.183Z,14.80
2018-04-19T12:08:08.336Z,14.90
2018-04-19T12:10:37.462Z,15.87
2018-04-19T12:13:06.584Z,14.90
2018-04-19T12:15:35.734Z,16.30
2018-04-19T12:18:04.966Z,15.30
2018-04-19T12:20:34.646Z,14.10
2018-04-19T12:23:03.869Z,24.93
2018-04-19T12:25:33.024Z,15.07
2018-04-19T12:28:02.164Z,16.00
2018-04-19T12:30:31.373Z,16.07
2018-04-19T12:33:00.565Z,14.50
2018-04-19T12:35:29.698Z,16.40
2018-04-19T12:37:58.823Z,15.73
2018-04-19T12:40:27.981Z,13.77
2018-04-19T12:42:57.112Z,16.87
2018-04-19T12:45:26.265Z,15.17
2018-04-19T12:47:55.431Z,16.37
2018-04-19T12:50:24.584Z,16.40
2018-04-19T12:52:53.709Z,14.37
2018-04-19T12:55:22.862Z,13.27
2018-04-19T12:57:52.000Z,15.70
2018-04-19T13:00:21.147Z,15.50
2018-04-19T13:02:50.320Z,15.47
2018-04-19T13:05:19.431Z,14.13
2018-04-19T13:07:48.572Z,17.27
2018-04-19T13:10:17.740Z,15.07
2018-04-19T13:12:46.890Z,14.33
2018-04-19T13:15:16.081Z,15.13
2018-04-19T13:17:45.270Z,14.20
2018-04-19T13:20:14.404Z,16.00
2018-04-19T13:22:44.041Z,13.77
2018-04-19T13:25:13.189Z,15.00
2018-04-19T13:27:42.346Z,17.27
2018-04-19T13:30:11.507Z,16.43
2018-04-19T13:32:40.625Z,15.70
2018-04-19T13:35:09.762Z,15.77
2018-04-19T13:37:38.916Z,14.50
2018-04-19T13:40:08.032Z,14.50
2018-04-19T13:42:37.160Z,16.20
2018-04-19T13:45:06.280Z,14.47
2018-04-19T13:47:35.407Z,13.93
2018-04-19T13:50:04.636Z,14.10
2018-04-19T13:52:33.789Z,12.80
2018-04-19T13:55:02.955Z,12.03
2018-04-19T13:57:32.098Z,15.00
2018-04-19T14:00:01.247Z,14.07
2018-04-19T14:02:30.376Z,15.50
2018-04-19T14:04:59.512Z,15.13
2018-04-19T14:07:28.656Z,18.50
2018-04-19T14:09:57.775Z,13.97
2018-04-19T14:12:26.942Z,14.60
2018-04-19T14:14:56.108Z,14.00
2018-04-19T14:17:25.262Z,20.60
2018-04-19T14:19:54.410Z,13.13
2018-04-19T14:22:23.544Z,13.27
2018-04-19T14:24:53.401Z,13.50
2018-04-19T14:27:22.557Z,12.03
2018-04-19T14:29:51.687Z,11.37
2018-04-19T14:32:20.883Z,11.70
2018-04-19T14:34:50.024Z,13.07
2018-04-19T14:37:19.187Z,11.60
2018-04-19T14:39:48.367Z,13.50
2018-04-19T14:42:17.516Z,12.00
2018-04-19T14:44:47.706Z,11.63
2018-04-19T15:31:51.705Z,10.03
2018-04-19T15:34:22.110Z,9.93
2018-04-19T15:36:51.237Z,9.87
2018-04-19T15:39:20.412Z,10.73
2018-04-19T15:41:49.533Z,12.43
2018-04-19T15:44:18.658Z,11.70
2018-04-19T15:46:47.861Z,9.90
2018-04-19T15:49:16.997Z,11.93
2018-04-19T15:51:46.126Z,10.80
2018-04-19T15:54:15.296Z,10.60
2018-04-19T15:56:44.429Z,10.50
2018-04-19T15:59:13.573Z,9.47
2018-04-19T16:01:42.735Z,11.70
2018-04-19T16:04:11.945Z,10.50
2018-04-19T16:06:41.093Z,10.40
2018-04-19T16:09:10.240Z,10.40
2018-04-19T16:11:39.407Z,10.57
2018-04-19T16:14:08.531Z,9.97
2018-04-19T16:16:37.677Z,12.13
2018-04-19T16:19:06.860Z,11.47
2018-04-19T16:21:35.932Z,10.40
2018-04-19T16:24:05.082Z,11.70
2018-04-19T16:26:34.232Z,13.00
2018-04-19T16:29:03.387Z,11.93
2018-04-19T16:31:32.569Z,11.30
2018-04-19T16:34:01.696Z,10.87
2018-04-19T16:36:30.833Z,11.53
2018-04-19T16:38:59.976Z,10.63
2018-04-19T16:41:29.119Z,11.63
2018-04-19T16:43:58.296Z,12.37
2018-04-19T16:46:27.417Z,11.20
2018-04-19T16:48:56.532Z,11.07
2018-04-19T16:51:25.683Z,10.80
2018-04-19T16:53:54.851Z,11.47
2018-04-19T16:56:24.136Z,12.50
2018-04-19T16:58:53.287Z,11.70
2018-04-19T17:01:22.404Z,11.77
2018-04-19T17:03:51.580Z,11.50
2018-04-19T17:06:20.709Z,11.00
2018-04-19T17:08:49.905Z,11.10
2018-04-19T17:11:19.064Z,11.63
2018-04-19T17:13:48.200Z,10.27
2018-04-19T17:16:17.331Z,10.87
2018-04-19T17:18:46.485Z,10.70
2018-04-19T17:21:15.598Z,10.93
2018-04-19T17:23:45.331Z,10.70
2018-04-19T17:26:14.465Z,10.80
2018-04-19T17:28:43.608Z,11.53
2018-04-19T17:31:12.724Z,11.50
2018-04-19T17:33:41.910Z,11.70
2018-04-19T17:36:11.032Z,11.47
2018-04-19T17:38:40.213Z,11.33
2018-04-19T17:41:09.348Z,11.33
2018-04-19T17:43:38.496Z,11.43
2018-04-19T17:46:07.668Z,11.50
2018-04-19T17:48:36.804Z,12.17
2018-04-19T17:51:05.952Z,11.37
2018-04-19T17:53:35.071Z,11.90
2018-04-19T17:56:04.214Z,13.30
2018-04-19T17:58:33.778Z,12.40
2018-04-19T18:01:02.892Z,11.20
2018-04-19T18:03:32.017Z,13.17
2018-04-19T18:06:01.204Z,12.90
2018-04-19T18:08:30.335Z,11.87
2018-04-19T18:10:59.492Z,12.00
2018-04-19T18:13:28.647Z,11.10
2018-04-19T18:15:57.784Z,11.47
2018-04-19T18:18:26.938Z,11.47
2018-04-19T18:20:56.107Z,12.03
2018-04-19T18:23:25.231Z,11.33
2018-04-19T18:25:54.997Z,11.47
2018-04-19T18:28:24.216Z,11.60
2018-04-19T18:30:53.378Z,12.80
2018-04-19T18:33:22.523Z,10.40
2018-04-19T18:35:51.701Z,11.60
2018-04-19T18:38:20.862Z,12.00
2018-04-19T18:40:50.006Z,11.17
2018-04-19T18:43:19.197Z,12.37
2018-04-19T18:45:48.354Z,12.20
2018-04-19T18:48:17.498Z,11.40
2018-04-19T18:50:46.652Z,10.87
2018-04-19T18:53:15.814Z,11.40
2018-04-19T18:55:44.999Z,11.73
2018-04-19T18:58:14.155Z,11.67
2018-04-19T19:00:43.273Z,11.30
2018-04-19T19:03:12.480Z,11.63
2018-04-19T19:05:41.607Z,11.10
2018-04-19T19:08:10.726Z,11.80
2018-04-19T19:10:39.912Z,11.10
2018-04-19T19:13:09.052Z,10.70
2018-04-19T19:15:53.097Z,11.87
2018-04-19T19:18:28.138Z,11.73
2018-04-19T19:20:57.316Z,12.17
2018-04-19T19:23:26.468Z,13.20
2018-04-19T19:25:55.676Z,14.23
2018-04-19T19:28:24.852Z,13.00
2018-04-19T19:30:54.032Z,12.30
2018-04-19T19:33:23.171Z,14.70
2018-04-19T19:35:52.342Z,13.13
2018-04-19T19:38:21.494Z,13.10
2018-04-19T19:40:50.676Z,15.07
2018-04-19T19:43:19.856Z,13.00
2018-04-19T19:45:49.043Z,13.30
2018-04-19T19:48:18.256Z,13.17
2018-04-19T19:50:47.376Z,12.97
2018-04-19T19:53:16.527Z,13.80
2018-04-19T19:55:46.412Z,13.33
2018-04-19T19:58:15.565Z,13.10
2018-04-19T20:00:44.730Z,13.60
2018-04-19T20:03:13.932Z,14.10
2018-04-19T20:05:43.111Z,13.13
2018-04-19T20:08:12.256Z,13.80
2018-04-19T20:10:41.452Z,13.60
2018-04-19T20:13:10.620Z,13.70
2018-04-19T20:15:39.783Z,13.57
2018-04-19T20:18:08.949Z,14.10
2018-04-19T20:20:38.085Z,12.13
2018-04-19T20:23:08.285Z,13.00
2018-04-19T20:25:37.687Z,12.50
2018-04-19T20:28:06.845Z,13.40
2018-04-19T20:30:35.981Z,14.30
2018-04-19T20:33:05.141Z,14.20
2018-04-19T20:35:34.293Z,16.63
2018-04-19T20:38:03.429Z,15.67
2018-04-19T20:40:32.605Z,16.20
2018-04-19T20:43:01.742Z,15.90
2018-04-19T20:45:30.868Z,15.80
2018-04-19T20:48:00.026Z,16.00
2018-04-19T20:50:29.141Z,16.17
2018-04-19T20:52:58.309Z,15.60
2018-04-19T20:55:27.482Z,18.23
2018-04-19T20:57:56.641Z,16.93
2018-04-19T21:00:25.777Z,17.53
2018-04-19T21:02:54.989Z,17.13
2018-04-19T21:05:24.222Z,19.93
2018-04-19T21:07:53.384Z,19.57
2018-04-19T21:10:22.523Z,19.17
2018-04-19T21:12:51.711Z,19.50
2018-04-19T21:15:20.918Z,18.07
2018-04-19T21:17:50.078Z,18.07
2018-04-19T21:20:19.688Z,15.20
2018-04-19T21:22:48.856Z,17.23
2018-04-19T21:25:18.028Z,18.03
2018-04-19T21:27:47.201Z,18.93
2018-04-19T21:30:16.376Z,19.43
2018-04-19T21:32:45.517Z,20.80
2018-04-19T21:35:14.656Z,19.87
2018-04-19T21:37:43.856Z,20.20
2018-04-19T21:40:12.992Z,20.87
2018-04-19T21:42:42.156Z,19.83
2018-04-19T21:45:11.340Z,21.10
2018-04-19T21:47:40.476Z,20.83
2018-04-19T21:50:09.680Z,21.27
2018-04-19T21:52:38.856Z,19.77
2018-04-19T21:55:08.010Z,19.00
2018-04-19T21:57:37.144Z,18.80
2018-04-19T22:00:06.353Z,19.30
2018-04-19T22:02:35.516Z,20.13
2018-04-19T22:05:04.673Z,21.20
2018-04-19T22:07:33.792Z,20.00
2018-04-19T22:10:02.961Z,18.50
2018-04-19T22:15:21.897Z,18.47
2018-04-19T22:17:51.033Z,18.70
2018-04-19T22:20:20.167Z,19.07
2018-04-19T22:22:49.319Z,18.07
2018-04-19T22:25:18.436Z,18.80
2018-04-19T22:27:47.561Z,19.60
2018-04-19T22:30:16.755Z,20.00
2018-04-19T22:32:45.910Z,20.17
2018-04-19T22:35:15.050Z,19.97
2018-04-19T22:37:44.203Z,17.57
2018-04-19T22:40:13.372Z,19.57
2018-04-19T22:42:42.510Z,19.17
2018-04-19T22:45:11.673Z,20.17
2018-04-19T22:47:40.828Z,19.50
2018-04-19T22:50:10.020Z,19.73
2018-04-19T22:52:39.159Z,19.03
2018-04-19T22:55:08.305Z,18.80
2018-04-19T22:57:37.423Z,19.20
2018-04-19T23:00:06.579Z,18.60
2018-04-19T23:02:35.737Z,17.87
2018-04-19T23:05:04.893Z,18.87
2018-04-19T23:07:34.050Z,17.77
2018-04-19T23:10:03.197Z,16.90
2018-04-19T23:12:32.372Z,17.87
2018-04-19T23:15:01.523Z,18.20
2018-04-19T23:17:30.751Z,16.97
2018-04-19T23:19:59.874Z,17.20
2018-04-19T23:22:34.898Z,17.30
2018-04-19T23:25:04.037Z,18.10
2018-04-19T23:27:33.213Z,17.30
2018-04-19T23:30:02.380Z,17.97
2018-04-19T23:32:31.532Z,17.43
2018-04-19T23:35:00.663Z,16.83
2018-04-19T23:37:29.839Z,16.80
2018-04-19T23:39:58.974Z,15.97
2018-04-19T23:42:28.107Z,17.73
2018-04-19T23:44:57.272Z,16.57
2018-04-19T23:47:26.443Z,16.70
2018-04-19T23:49:55.614Z,16.37
2018-04-19T23:52:24.752Z,17.80
2018-04-19T23:54:53.928Z,17.40
2018-04-19T23:57:23.076Z,18.33
2018-04-19T23:59:52.223Z,17.60
